Time;durP1;ratioP1;P1;durP2;ratioP2;P2;SDS_P1;SDS_P2;PMS_P1;PMS_P2;Temp;Humidity;BMP_temperature;BMP_pressure;BME280_temperature;BME280_humidity;BME280_pressure;Samples;Min_cycle;Max_cycle;Signal;HPM_P1;HPM_P2
2022/09/28 00:01:13;;;;;;;4.15;2.67;;;7.20;92.20;;;;;;5031500;28;20052;-55
2022/09/28 00:03:40;;;;;;;4.68;2.72;;;7.20;92.30;;;;;;5032243;28;20039;-55
2022/09/28 00:06:10;;;;;;;4.50;2.40;;;7.20;92.30;;;;;;5032531;28;20097;-58
2022/09/28 00:08:36;;;;;;;6.60;3.00;;;7.10;92.30;;;;;;4992266;28;20026;-54
2022/09/28 00:11:05;;;;;;;5.95;2.97;;;7.10;92.30;;;;;;5012499;28;20044;-58
2022/09/28 00:13:33;;;;;;;6.97;3.05;;;7.00;92.20;;;;;;4995144;28;20355;-57
2022/09/28 00:16:04;;;;;;;5.32;2.85;;;7.00;92.20;;;;;;4994890;28;20117;-58
2022/09/28 00:18:31;;;;;;;5.03;3.10;;;7.00;92.30;;;;;;5029976;28;20116;-58
2022/09/28 00:21:18;;;;;;;6.20;2.78;;;7.00;92.40;;;;;;5051618;28;20044;-58
2022/09/28 00:26:32;;;;;;;7.20;3.58;;;7.00;92.40;;;;;;5047121;28;20513;-58
2022/09/28 00:29:00;;;;;;;7.90;3.33;;;6.90;92.30;;;;;;5031562;28;20061;-58
2022/09/28 00:31:28;;;;;;;6.28;3.20;;;6.90;92.40;;;;;;5013404;28;20037;-57
2022/09/28 00:33:57;;;;;;;6.28;3.63;;;6.90;92.40;;;;;;5031202;28;20032;-58
2022/09/28 00:36:29;;;;;;;6.45;3.70;;;6.90;92.40;;;;;;4997807;28;20022;-58
2022/09/28 00:38:59;;;;;;;9.38;3.28;;;6.90;92.50;;;;;;5028167;28;20030;-56
2022/09/28 00:41:27;;;;;;;6.68;3.72;;;6.80;92.40;;;;;;5031921;28;20029;-58
2022/09/28 00:44:25;;;;;;;5.40;3.75;;;6.80;92.50;;;;;;5014045;28;20037;-58
2022/09/28 00:47:03;;;;;;;5.40;3.95;;;6.80;92.50;;;;;;5030125;28;20435;-58
2022/09/28 00:49:39;;;;;;;6.18;4.00;;;6.80;92.50;;;;;;5031225;28;20041;-56
2022/09/28 00:52:09;;;;;;;6.38;3.90;;;6.80;92.50;;;;;;5030753;28;20141;-58
2022/09/28 00:54:36;;;;;;;5.88;4.80;;;6.80;92.60;;;;;;5031232;28;20033;-59
2022/09/28 00:57:04;;;;;;;9.95;4.68;;;6.80;92.60;;;;;;5030570;28;20481;-58
2022/09/28 00:59:32;;;;;;;5.93;4.47;;;6.80;92.60;;;;;;5011365;28;20034;-58
2022/09/28 01:01:58;;;;;;;6.88;4.55;;;6.70;92.50;;;;;;4994445;28;20048;-56
2022/09/28 01:04:23;;;;;;;5.63;4.22;;;6.80;92.60;;;;;;5030036;28;20450;-58
2022/09/28 01:06:51;;;;;;;8.90;5.18;;;6.70;92.50;;;;;;5031193;28;20064;-59
2022/09/28 01:09:19;;;;;;;8.55;5.18;;;6.70;92.60;;;;;;5012672;28;20040;-59
2022/09/28 01:11:46;;;;;;;6.55;4.80;;;6.70;92.60;;;;;;5030973;28;20059;-58
2022/09/28 01:14:14;;;;;;;7.40;5.07;;;6.60;92.50;;;;;;5031127;28;20391;-58
2022/09/28 01:16:53;;;;;;;8.60;5.60;;;6.60;92.50;;;;;;5031174;28;20385;-59
2022/09/28 01:19:40;;;;;;;8.18;5.53;;;6.70;92.60;;;;;;5030001;28;20056;-59
2022/09/28 01:22:31;;;;;;;7.88;5.68;;;6.60;92.50;;;;;;5030219;28;20021;-58
2022/09/28 01:25:06;;;;;;;6.22;4.85;;;6.60;92.50;;;;;;5013191;28;20048;-59
2022/09/28 01:27:40;;;;;;;8.18;5.72;;;6.60;92.60;;;;;;5010736;28;20606;-59
2022/09/28 01:30:25;;;;;;;8.25;5.65;;;6.60;92.60;;;;;;5010652;28;20034;-59
2022/09/28 01:33:11;;;;;;;7.05;5.57;;;6.60;92.60;;;;;;5013468;28;20053;-59
2022/09/28 01:36:20;;;;;;;7.85;6.22;;;6.60;92.60;;;;;;4993363;28;20029;-59
2022/09/28 01:39:06;;;;;;;6.97;6.13;;;6.50;92.60;;;;;;5010874;28;20030;-58
2022/09/28 01:41:39;;;;;;;7.47;5.90;;;6.50;92.50;;;;;;5010601;28;20030;-59
2022/09/28 01:44:12;;;;;;;9.50;5.40;;;6.50;92.50;;;;;;5022728;28;20036;-59
2022/09/28 01:46:43;;;;;;;6.85;5.15;;;6.40;92.50;;;;;;5013064;28;20029;-59
2022/09/28 01:49:25;;;;;;;9.85;5.97;;;6.40;92.50;;;;;;5027960;28;20064;-59
2022/09/28 01:52:01;;;;;;;8.98;6.32;;;6.40;92.60;;;;;;5030165;28;20331;-59
2022/09/28 01:54:59;;;;;;;9.20;5.70;;;6.40;92.60;;;;;;5029399;28;20036;-59
2022/09/28 01:57:44;;;;;;;9.10;6.05;;;6.40;92.60;;;;;;5030081;28;20029;-59
2022/09/28 02:00:13;;;;;;;9.18;6.35;;;6.40;92.60;;;;;;5030278;28;20026;-60
2022/09/28 02:02:55;;;;;;;7.38;6.13;;;6.40;92.60;;;;;;5029778;28;20028;-60
2022/09/28 02:05:31;;;;;;;8.60;6.35;;;6.40;92.60;;;;;;5028854;28;20505;-60
2022/09/28 02:08:38;;;;;;;7.63;5.70;;;6.40;92.60;;;;;;5012885;28;20056;-60
2022/09/28 02:11:13;;;;;;;9.13;6.70;;;6.30;92.50;;;;;;5012473;28;20021;-60
2022/09/28 02:13:47;;;;;;;11.13;6.88;;;6.40;92.60;;;;;;5008066;28;20105;-60
2022/09/28 02:16:32;;;;;;;12.05;7.03;;;6.30;92.60;;;;;;5010118;28;20022;-60
2022/09/28 02:18:59;;;;;;;8.68;5.97;;;6.30;92.70;;;;;;5015640;28;20101;-60
2022/09/28 02:21:32;;;;;;;8.70;7.53;;;6.30;92.70;;;;;;5030068;28;20033;-60
2022/09/28 02:24:19;;;;;;;9.52;6.57;;;6.30;92.70;;;;;;5029792;28;20108;-60
2022/09/28 02:26:49;;;;;;;11.25;7.28;;;6.30;92.60;;;;;;5028487;28;20035;-60
2022/09/28 02:29:16;;;;;;;7.97;6.43;;;6.30;92.70;;;;;;5029305;28;20032;-60
2022/09/28 02:31:43;;;;;;;7.95;6.47;;;6.30;92.70;;;;;;5029382;28;20036;-60
2022/09/28 02:34:09;;;;;;;9.10;6.97;;;6.30;92.70;;;;;;5027639;28;20508;-60
2022/09/28 02:36:37;;;;;;;8.45;6.35;;;6.20;92.60;;;;;;5029522;28;20079;-60
2022/09/28 02:39:03;;;;;;;7.60;6.63;;;6.20;92.60;;;;;;5029504;28;20032;-60
2022/09/28 02:42:00;;;;;;;10.55;7.13;;;6.20;92.70;;;;;;5029524;28;20029;-60
2022/09/28 02:44:32;;;;;;;9.57;6.85;;;6.20;92.70;;;;;;5010963;28;20116;-60
2022/09/28 02:47:21;;;;;;;8.77;7.00;;;6.10;92.60;;;;;;5011877;28;20465;-60
2022/09/28 02:50:24;;;;;;;8.27;7.32;;;6.10;92.60;;;;;;5003538;28;20417;-61
2022/09/28 02:53:05;;;;;;;9.98;7.20;;;6.10;92.60;;;;;;5029290;28;20041;-60
2022/09/28 02:56:09;;;;;;;8.70;6.85;;;6.10;92.60;;;;;;5009595;28;20254;-60
2022/09/28 02:59:12;;;;;;;9.55;7.95;;;6.00;92.70;;;;;;4991984;28;20030;-60
2022/09/28 03:02:01;;;;;;;7.53;6.70;;;6.00;92.70;;;;;;5009374;28;20109;-61
2022/09/28 03:04:53;;;;;;;8.50;7.13;;;6.00;92.60;;;;;;5013649;28;20029;-61
2022/09/28 03:07:30;;;;;;;8.52;6.80;;;6.00;92.70;;;;;;5029218;28;20062;-61
2022/09/28 03:10:18;;;;;;;7.90;6.85;;;6.00;92.70;;;;;;5029184;28;20064;-61
2022/09/28 03:12:47;;;;;;;8.50;6.65;;;6.00;92.70;;;;;;5029009;28;20443;-61
2022/09/28 03:15:30;;;;;;;8.70;7.57;;;5.90;92.60;;;;;;5027720;28;20032;-61
2022/09/28 03:18:00;;;;;;;8.25;6.43;;;5.90;92.60;;;;;;5035588;28;20029;-61
2022/09/28 03:20:28;;;;;;;7.78;6.22;;;5.90;92.70;;;;;;5033680;28;20041;-61
2022/09/28 03:22:55;;;;;;;7.57;6.05;;;5.90;92.70;;;;;;5034919;28;20025;-61
2022/09/28 03:25:22;;;;;;;10.48;6.78;;;5.90;92.70;;;;;;5034751;28;20029;-61
2022/09/28 03:27:47;;;;;;;17.27;6.75;;;5.80;92.60;;;;;;5008485;28;20466;-61
2022/09/28 03:30:14;;;;;;;11.35;6.13;;;5.80;92.60;;;;;;5001604;28;20043;-61
2022/09/28 03:32:40;;;;;;;9.00;6.45;;;5.70;92.60;;;;;;5022398;28;20017;-62
2022/09/28 03:35:08;;;;;;;8.70;6.82;;;5.70;92.70;;;;;;5045757;28;20100;-61
2022/09/28 03:37:36;;;;;;;7.63;6.25;;;5.70;92.70;;;;;;5035505;28;20049;-61
2022/09/28 03:40:03;;;;;;;8.82;6.88;;;5.70;92.70;;;;;;5052098;28;20040;-62
2022/09/28 03:42:30;;;;;;;8.55;6.15;;;5.70;92.70;;;;;;5038006;28;20029;-61
2022/09/28 03:44:57;;;;;;;7.78;6.10;;;5.70;92.70;;;;;;5048736;28;20159;-61
2022/09/28 03:47:23;;;;;;;15.57;7.28;;;5.70;92.70;;;;;;5035452;28;20025;-61
2022/09/28 03:49:49;;;;;;;14.07;6.72;;;5.70;92.70;;;;;;5032692;28;20772;-62
2022/09/28 03:52:15;;;;;;;7.13;5.82;;;5.60;92.70;;;;;;5035366;28;20342;-62
2022/09/28 03:54:41;;;;;;;9.18;7.15;;;5.60;92.70;;;;;;5035441;28;20033;-62
2022/09/28 03:57:08;;;;;;;10.43;6.25;;;5.60;92.70;;;;;;5025900;28;20017;-61
2022/09/28 03:59:36;;;;;;;9.52;6.80;;;5.60;92.70;;;;;;5015838;28;20368;-62
2022/09/28 04:02:09;;;;;;;8.85;6.95;;;5.60;92.70;;;;;;5034694;28;20039;-61
2022/09/28 04:04:35;;;;;;;10.20;7.35;;;5.60;92.70;;;;;;5035026;28;20017;-61
2022/09/28 04:07:02;;;;;;;8.15;7.30;;;5.60;92.70;;;;;;5010050;28;20092;-62
2022/09/28 04:09:28;;;;;;;8.95;7.13;;;5.60;92.70;;;;;;5024134;28;20122;-61
2022/09/28 04:11:55;;;;;;;10.75;8.10;;;5.60;92.80;;;;;;5025548;28;20060;-62
2022/09/28 04:14:22;;;;;;;9.77;7.13;;;5.60;92.70;;;;;;5024323;28;20032;-61
2022/09/28 04:16:53;;;;;;;11.82;7.15;;;5.50;92.60;;;;;;5009003;28;20487;-61
2022/09/28 04:19:21;;;;;;;7.65;6.53;;;5.50;92.60;;;;;;5024107;28;20021;-62
2022/09/28 04:21:49;;;;;;;8.52;6.82;;;5.50;92.60;;;;;;5026940;28;20089;-62
2022/09/28 04:24:16;;;;;;;11.10;6.97;;;5.40;92.50;;;;;;5023942;28;20021;-61
2022/09/28 04:26:43;;;;;;;7.78;6.50;;;5.40;92.60;;;;;;5032181;28;20334;-62
2022/09/28 04:29:17;;;;;;;11.88;6.47;;;5.40;92.60;;;;;;5012223;28;20503;-62
2022/09/28 04:32:01;;;;;;;9.25;6.38;;;5.40;92.60;;;;;;5012185;28;20060;-62
2022/09/28 04:34:28;;;;;;;11.43;6.57;;;5.40;92.60;;;;;;5011917;28;20026;-62
2022/09/28 04:36:55;;;;;;;8.70;7.15;;;5.30;92.70;;;;;;5006050;28;20026;-62
2022/09/28 04:39:22;;;;;;;21.15;7.75;;;5.40;92.70;;;;;;4993841;28;21105;-61
2022/09/28 04:41:49;;;;;;;10.50;7.10;;;5.40;92.80;;;;;;5003995;28;20133;-62
2022/09/28 04:44:16;;;;;;;30.95;8.23;;;5.30;92.70;;;;;;5014179;28;20425;-61
2022/09/28 04:46:43;;;;;;;10.73;7.93;;;5.30;92.70;;;;;;5027122;28;20026;-62
2022/09/28 04:49:09;;;;;;;20.40;8.35;;;5.30;92.80;;;;;;5023475;28;20038;-62
2022/09/28 04:51:39;;;;;;;23.65;7.18;;;5.30;92.90;;;;;;5029742;28;20017;-62
2022/09/28 04:54:04;;;;;;;19.73;7.28;;;5.20;92.80;;;;;;5017347;28;20017;-62
2022/09/28 04:56:30;;;;;;;9.73;6.85;;;5.20;92.70;;;;;;5033793;28;20124;-62
2022/09/28 04:58:57;;;;;;;11.32;7.15;;;5.20;92.80;;;;;;5038387;28;20034;-62
2022/09/28 05:01:23;;;;;;;19.08;7.15;;;5.20;92.80;;;;;;5031072;28;20029;-62
2022/09/28 05:03:50;;;;;;;8.75;6.85;;;5.10;92.80;;;;;;5031433;28;20033;-62
2022/09/28 05:06:21;;;;;;;12.15;7.45;;;5.20;93.00;;;;;;5029209;28;20365;-62
2022/09/28 05:08:48;;;;;;;13.35;7.30;;;5.20;92.90;;;;;;5005589;28;20049;-62
2022/09/28 05:11:14;;;;;;;12.73;7.60;;;5.10;92.80;;;;;;5031245;28;20458;-62
2022/09/28 05:13:44;;;;;;;27.92;6.88;;;5.10;92.90;;;;;;5013667;28;20028;-62
2022/09/28 05:16:11;;;;;;;9.70;5.97;;;5.00;92.80;;;;;;5030297;28;20030;-62
2022/09/28 05:18:38;;;;;;;6.18;5.57;;;5.00;92.80;;;;;;5026736;28;20048;-62
2022/09/28 05:21:18;;;;;;;21.25;7.30;;;5.00;92.90;;;;;;5028246;28;20093;-62
2022/09/28 05:23:47;;;;;;;13.25;7.18;;;5.00;92.90;;;;;;5027474;28;20037;-62
2022/09/28 05:26:13;;;;;;;12.52;7.22;;;5.00;92.90;;;;;;5029345;28;20028;-62
2022/09/28 05:28:41;;;;;;;10.75;7.28;;;5.10;93.10;;;;;;5025714;28;20038;-62
2022/09/28 05:31:07;;;;;;;17.23;7.63;;;5.10;93.10;;;;;;5027500;28;20025;-62
2022/09/28 05:33:35;;;;;;;13.48;7.47;;;5.10;93.00;;;;;;5029187;28;20091;-62
2022/09/28 05:36:02;;;;;;;14.05;7.30;;;5.10;92.90;;;;;;5026663;28;20086;-62
2022/09/28 05:38:31;;;;;;;27.20;7.88;;;5.10;92.90;;;;;;5022368;28;20454;-62
2022/09/28 05:40:58;;;;;;;13.98;7.78;;;5.10;93.00;;;;;;5025342;28;20029;-62
2022/09/28 05:43:25;;;;;;;9.18;7.93;;;5.10;93.10;;;;;;5010589;28;20034;-62
2022/09/28 05:45:52;;;;;;;12.30;8.23;;;5.20;93.10;;;;;;5031506;28;20161;-62
2022/09/28 05:48:19;;;;;;;53.35;10.60;;;5.20;93.20;;;;;;5032977;28;20042;-62
2022/09/28 05:50:51;;;;;;;12.55;8.10;;;5.20;93.20;;;;;;5029193;28;20061;-61
2022/09/28 05:53:16;;;;;;;10.75;7.53;;;5.40;93.30;;;;;;5028992;28;20454;-62
2022/09/28 05:55:44;;;;;;;9.90;8.10;;;5.40;93.20;;;;;;5027267;28;20190;-62
2022/09/28 05:58:11;;;;;;;10.93;8.48;;;5.40;93.10;;;;;;5017826;28;20037;-62
2022/09/28 06:00:40;;;;;;;18.50;8.88;;;5.40;93.10;;;;;;5008688;28;20091;-62
2022/09/28 06:03:10;;;;;;;15.85;8.63;;;5.40;93.10;;;;;;5031545;28;20030;-62
2022/09/28 06:05:38;;;;;;;17.55;8.43;;;5.40;93.00;;;;;;5046695;28;20025;-61
2022/09/28 06:08:07;;;;;;;12.13;7.65;;;5.50;93.10;;;;;;5009578;28;20542;-62
2022/09/28 06:10:34;;;;;;;10.30;7.43;;;5.50;93.10;;;;;;5027419;28;20436;-61
2022/09/28 06:13:01;;;;;;;9.63;7.65;;;5.50;93.00;;;;;;5021109;28;20056;-61
2022/09/28 06:15:32;;;;;;;9.20;8.13;;;5.50;92.90;;;;;;5024937;28;20022;-61
2022/09/28 06:18:01;;;;;;;10.82;7.50;;;5.60;92.90;;;;;;5021732;28;20092;-61
2022/09/28 06:20:30;;;;;;;9.95;7.60;;;5.60;92.90;;;;;;5026414;28;20039;-61
2022/09/28 06:22:57;;;;;;;14.70;8.50;;;5.70;93.00;;;;;;5018510;28;20087;-61
2022/09/28 06:25:26;;;;;;;20.67;8.52;;;5.60;92.60;;;;;;5002727;28;20029;-61
2022/09/28 06:28:13;;;;;;;12.15;9.05;;;5.70;92.70;;;;;;5018810;28;20096;-59
2022/09/28 06:30:46;;;;;;;10.43;8.48;;;5.70;92.70;;;;;;4993956;28;20367;-60
2022/09/28 06:33:15;;;;;;;11.38;7.90;;;5.70;92.70;;;;;;5015019;28;20109;-60
2022/09/28 06:35:42;;;;;;;9.88;7.32;;;5.70;92.70;;;;;;4999832;28;20033;-60
2022/09/28 06:38:09;;;;;;;11.40;7.63;;;5.70;92.70;;;;;;5013520;28;20120;-58
2022/09/28 06:40:37;;;;;;;9.65;7.47;;;5.70;92.80;;;;;;5018276;28;20036;-60
2022/09/28 06:43:21;;;;;;;8.65;7.55;;;5.80;92.80;;;;;;5017540;28;20422;-58
2022/09/28 06:45:52;;;;;;;19.80;8.45;;;5.90;92.80;;;;;;5033900;28;20033;-59
2022/09/28 06:48:19;;;;;;;8.75;7.53;;;5.90;92.60;;;;;;5019828;28;20582;-59
2022/09/28 06:50:46;;;;;;;16.15;7.90;;;5.90;92.70;;;;;;5025407;28;20398;-59
2022/09/28 06:53:15;;;;;;;16.17;7.85;;;6.00;92.80;;;;;;5009368;28;20026;-59
2022/09/28 06:55:47;;;;;;;10.05;7.43;;;6.00;92.70;;;;;;5027338;28;20033;-59
2022/09/28 06:58:18;;;;;;;11.82;8.15;;;6.20;92.90;;;;;;5021714;28;20112;-59
2022/09/28 07:00:48;;;;;;;11.38;9.35;;;6.30;93.00;;;;;;5020333;28;20029;-58
2022/09/28 07:03:19;;;;;;;17.83;9.77;;;6.40;92.90;;;;;;5020171;28;20044;-58
2022/09/28 07:05:48;;;;;;;11.23;9.35;;;6.50;92.90;;;;;;5022474;28;20028;-57
2022/09/28 07:08:16;;;;;;;10.40;9.02;;;6.60;92.80;;;;;;5027354;28;20127;-57
2022/09/28 07:10:46;;;;;;;12.30;9.27;;;6.60;92.70;;;;;;5018661;28;20060;-56
2022/09/28 07:13:14;;;;;;;12.43;9.48;;;6.80;92.80;;;;;;5022173;28;20049;-58
2022/09/28 07:15:42;;;;;;;20.27;11.82;;;6.90;92.90;;;;;;5015057;28;20026;-58
2022/09/28 07:18:10;;;;;;;11.43;9.93;;;6.90;92.60;;;;;;5018904;28;20045;-58
2022/09/28 07:20:36;;;;;;;12.93;10.43;;;7.00;92.80;;;;;;5002254;28;20030;-57
2022/09/28 07:23:06;;;;;;;14.48;11.63;;;7.00;92.60;;;;;;5019021;28;20029;-57
2022/09/28 07:25:36;;;;;;;29.40;11.85;;;7.10;92.70;;;;;;5025766;28;20031;-57
2022/09/28 07:28:03;;;;;;;15.00;11.30;;;7.10;92.70;;;;;;5028730;28;20454;-57
2022/09/28 07:30:34;;;;;;;16.20;10.90;;;7.20;92.70;;;;;;5028060;28;20481;-57
2022/09/28 07:33:03;;;;;;;14.10;11.15;;;7.30;92.80;;;;;;5028711;28;20029;-57
2022/09/28 07:35:32;;;;;;;15.18;12.18;;;7.40;92.90;;;;;;5028789;28;20030;-53
2022/09/28 07:38:04;;;;;;;15.40;11.93;;;7.60;92.70;;;;;;5011818;28;20022;-55
2022/09/28 07:43:20;;;;;;;20.02;12.85;;;7.90;92.70;;;;;;5018257;28;20127;-56
2022/09/28 07:45:52;;;;;;;14.82;11.77;;;8.00;92.50;;;;;;5017320;28;20026;-53
2022/09/28 07:48:19;;;;;;;14.90;11.32;;;8.20;92.60;;;;;;5000484;28;20076;-54
2022/09/28 07:51:04;;;;;;;15.88;13.63;;;8.40;92.70;;;;;;5019194;28;20025;-54
2022/09/28 07:53:30;;;;;;;14.65;12.15;;;8.80;92.50;;;;;;5018810;28;20105;-50
2022/09/28 07:56:08;;;;;;;14.55;12.25;;;9.00;92.10;;;;;;5016481;28;20109;-53
2022/09/28 07:58:37;;;;;;;14.75;12.95;;;9.30;91.90;;;;;;5028044;28;20063;-53
2022/09/28 08:01:06;;;;;;;12.18;10.98;;;9.80;91.70;;;;;;5026335;28;20018;-51
2022/09/28 08:03:32;;;;;;;11.75;10.38;;;10.20;91.50;;;;;;5019885;28;20112;-53
2022/09/28 08:06:01;;;;;;;10.88;9.75;;;10.70;90.90;;;;;;5023077;28;20108;-52
2022/09/28 08:08:28;;;;;;;10.18;9.10;;;11.00;89.90;;;;;;5023205;28;20112;-52
2022/09/28 08:10:56;;;;;;;10.75;9.13;;;11.20;88.30;;;;;;5023196;28;20029;-52
2022/09/28 08:13:24;;;;;;;10.38;8.80;;;11.40;87.60;;;;;;5011819;28;20038;-52
2022/09/28 08:15:54;;;;;;;11.43;9.32;;;11.50;87.60;;;;;;5021938;28;20461;-51
2022/09/28 08:18:22;;;;;;;12.02;9.82;;;11.70;86.70;;;;;;5022474;28;20845;-50
2022/09/28 08:23:39;;;;;;;10.93;8.40;;;11.80;86.10;;;;;;5016663;28;20379;-49
2022/09/28 08:26:07;;;;;;;10.73;9.50;;;11.90;86.30;;;;;;5016877;28;20108;-49
2022/09/28 08:35:24;;;;;;;10.95;8.25;;;12.10;85.70;;;;;;5015376;28;20028;-53
2022/09/28 08:37:53;;;;;;;11.02;7.65;;;12.20;85.10;;;;;;5003591;28;20049;-48
2022/09/28 08:40:25;;;;;;;8.38;6.88;;;12.40;85.80;;;;;;5017975;28;20069;-49
2022/09/28 08:42:59;;;;;;;9.45;6.13;;;12.50;84.20;;;;;;4994718;28;20038;-47
2022/09/28 08:45:40;;;;;;;7.30;6.10;;;12.70;84.20;;;;;;4994268;28;20044;-48
2022/09/28 08:51:22;;;;;;;10.02;7.18;;;12.80;84.00;;;;;;5009132;28;20036;-47
2022/09/28 08:54:12;;;;;;;7.25;6.18;;;12.90;83.90;;;;;;5003380;28;20124;-52
2022/09/28 08:56:57;;;;;;;10.07;6.60;;;13.30;83.90;;;;;;5008241;28;20037;-53
2022/09/28 08:59:36;;;;;;;7.28;5.93;;;13.40;82.90;;;;;;5001715;28;20129;-53
2022/09/28 09:02:04;;;;;;;6.90;5.80;;;13.40;82.50;;;;;;5013679;28;20374;-50
2022/09/28 09:04:32;;;;;;;7.28;5.63;;;13.60;83.20;;;;;;5020966;28;20034;-49
2022/09/28 09:07:32;;;;;;;7.70;5.60;;;13.90;81.40;;;;;;5002764;28;20045;-51
2022/09/28 09:10:29;;;;;;;6.82;5.68;;;14.20;82.60;;;;;;5002304;28;20037;-52
2022/09/28 09:13:20;;;;;;;8.25;5.05;;;14.60;81.50;;;;;;5012987;28;20085;-53
2022/09/28 09:16:05;;;;;;;5.32;3.28;;;14.60;81.10;;;;;;5009939;28;20025;-48
2022/09/28 09:18:34;;;;;;;4.50;3.33;;;14.60;78.80;;;;;;5015991;28;20065;-51
2022/09/28 09:21:18;;;;;;;7.00;4.10;;;14.50;77.90;;;;;;5011802;28;20021;-47
2022/09/28 09:23:55;;;;;;;5.03;3.22;;;14.50;79.30;;;;;;4993688;28;20056;-50
2022/09/28 09:26:41;;;;;;;4.30;2.60;;;14.70;78.10;;;;;;4994759;28;20034;-52
2022/09/28 09:29:28;;;;;;;5.18;2.13;;;14.80;77.20;;;;;;5011384;28;20427;-53
2022/09/28 09:32:16;;;;;;;3.33;1.90;;;14.80;77.20;;;;;;5008955;28;20132;-51
2022/09/28 09:35:10;;;;;;;5.15;2.08;;;14.50;76.90;;;;;;5002213;28;20033;-53
2022/09/28 09:38:08;;;;;;;3.95;2.15;;;14.40;77.20;;;;;;4994328;28;20526;-52
2022/09/28 09:41:03;;;;;;;3.38;1.83;;;13.90;76.90;;;;;;4987879;28;20125;-50
2022/09/28 09:43:54;;;;;;;6.50;1.80;;;13.90;78.80;;;;;;4997089;28;20121;-51
2022/09/28 09:46:35;;;;;;;5.72;2.10;;;13.90;79.00;;;;;;5013859;28;20038;-51
2022/09/28 09:49:25;;;;;;;4.72;2.30;;;13.60;78.80;;;;;;4991099;28;20050;-50
2022/09/28 09:52:36;;;;;;;3.75;2.53;;;13.50;79.50;;;;;;5003811;28;20463;-46
2022/09/28 09:55:43;;;;;;;3.83;2.20;;;13.30;79.20;;;;;;5010444;28;20041;-50
2022/09/28 09:58:25;;;;;;;4.85;2.72;;;13.10;80.10;;;;;;4997114;28;20030;-50
2022/09/28 10:00:54;;;;;;;3.20;1.90;;;12.70;80.80;;;;;;5002850;28;20032;-49
2022/09/28 10:03:32;;;;;;;5.30;1.70;;;12.50;80.80;;;;;;5004710;28;20060;-47
2022/09/28 10:06:06;;;;;;;4.97;1.60;;;12.60;81.50;;;;;;5011469;28;20706;-48
2022/09/28 10:08:39;;;;;;;3.90;2.15;;;12.80;82.40;;;;;;4998991;28;20437;-46
2022/09/28 10:11:27;;;;;;;6.25;1.48;;;13.00;81.50;;;;;;5011513;28;20443;-47
2022/09/28 10:14:03;;;;;;;4.05;1.60;;;13.20;80.60;;;;;;4986771;28;20045;-46
2022/09/28 10:16:34;;;;;;;3.08;1.55;;;13.60;80.30;;;;;;5011708;28;20424;-46
2022/09/28 10:19:13;;;;;;;4.28;1.98;;;14.00;80.70;;;;;;5001570;28;20037;-50
2022/09/28 10:21:41;;;;;;;3.20;1.38;;;14.50;79.10;;;;;;5001875;28;20026;-47
2022/09/28 10:24:34;;;;;;;1.90;1.00;;;14.40;76.60;;;;;;5012695;28;20053;-46
2022/09/28 10:27:21;;;;;;;2.90;1.23;;;14.40;76.10;;;;;;4999712;28;20462;-48
2022/09/28 10:30:22;;;;;;;3.92;1.42;;;14.60;77.80;;;;;;5017550;28;20493;-48
2022/09/28 10:32:50;;;;;;;11.60;1.52;;;14.60;76.70;;;;;;4998357;28;20038;-51
2022/09/28 10:35:48;;;;;;;2.75;1.42;;;14.40;75.60;;;;;;5017544;28;20030;-49
2022/09/28 10:38:17;;;;;;;3.10;1.63;;;14.70;77.70;;;;;;5019152;28;20033;-46
2022/09/28 10:41:10;;;;;;;4.78;1.52;;;15.00;75.20;;;;;;5017202;28;20030;-46
2022/09/28 10:44:09;;;;;;;2.95;1.60;;;14.40;74.40;;;;;;4989751;28;20127;-48
2022/09/28 10:46:40;;;;;;;4.28;1.65;;;14.10;76.40;;;;;;5016812;28;20029;-47
2022/09/28 10:49:16;;;;;;;4.13;1.60;;;13.90;76.30;;;;;;5018740;28;20046;-47
2022/09/28 10:51:55;;;;;;;4.18;1.17;;;13.40;77.70;;;;;;5018535;28;20033;-46
2022/09/28 10:54:51;;;;;;;5.90;1.67;;;13.40;79.00;;;;;;4998581;28;20026;-48
2022/09/28 10:57:32;;;;;;;5.20;1.92;;;13.40;77.60;;;;;;5022470;28;20029;-47
2022/09/28 11:00:00;;;;;;;3.13;2.00;;;13.30;78.60;;;;;;4999802;28;20335;-46
2022/09/28 11:02:31;;;;;;;2.93;1.40;;;13.20;79.40;;;;;;5017367;28;20026;-46
2022/09/28 11:04:59;;;;;;;2.55;1.02;;;13.10;79.90;;;;;;5000025;28;20053;-47
2022/09/28 11:07:32;;;;;;;5.35;1.20;;;13.00;79.70;;;;;;5004893;28;20417;-47
2022/09/28 11:10:04;;;;;;;5.75;1.50;;;13.00;79.60;;;;;;4983869;28;20041;-46
2022/09/28 11:12:44;;;;;;;3.47;1.60;;;12.90;79.70;;;;;;5018068;28;20025;-46
2022/09/28 11:15:18;;;;;;;2.92;1.25;;;12.90;80.50;;;;;;5009405;28;20025;-46
2022/09/28 11:17:43;;;;;;;2.72;1.23;;;12.80;80.00;;;;;;5015409;28;20045;-46
2022/09/28 11:20:34;;;;;;;2.35;1.40;;;12.80;80.90;;;;;;5008560;28;20026;-49
2022/09/28 11:23:22;;;;;;;2.63;1.42;;;12.70;81.30;;;;;;5017069;28;20057;-45
2022/09/28 11:26:03;;;;;;;2.25;1.38;;;12.70;82.40;;;;;;5018541;28;20057;-49
2022/09/28 11:28:33;;;;;;;2.80;1.70;;;12.60;80.90;;;;;;5018361;28;20042;-46
2022/09/28 11:31:01;;;;;;;2.80;1.50;;;12.70;81.50;;;;;;5006829;28;20105;-47
2022/09/28 11:33:32;;;;;;;3.92;1.60;;;12.70;80.90;;;;;;4966702;28;20058;-47
2022/09/28 11:36:25;;;;;;;3.42;1.25;;;12.80;82.20;;;;;;5007966;28;20026;-46
2022/09/28 11:39:24;;;;;;;3.22;1.20;;;12.70;82.40;;;;;;5017613;28;20034;-50
2022/09/28 11:42:08;;;;;;;2.85;1.25;;;12.80;81.00;;;;;;4994364;28;20092;-50
2022/09/28 11:44:36;;;;;;;2.95;1.42;;;12.90;81.30;;;;;;5029853;28;20417;-46
2022/09/28 11:47:35;;;;;;;3.13;1.25;;;12.90;80.50;;;;;;5013263;28;20410;-48
2022/09/28 11:50:28;;;;;;;2.67;1.30;;;12.90;80.90;;;;;;5007435;28;20065;-48
2022/09/28 11:53:02;;;;;;;3.75;1.77;;;12.90;81.50;;;;;;5011481;28;20040;-49
2022/09/28 11:56:14;;;;;;;3.97;1.80;;;12.90;81.30;;;;;;5010330;28;20079;-48
2022/09/28 11:58:58;;;;;;;2.53;1.30;;;13.10;80.90;;;;;;4992320;28;20042;-49
2022/09/28 12:01:34;;;;;;;3.03;1.13;;;13.30;81.20;;;;;;5031915;28;20788;-46
2022/09/28 12:04:10;;;;;;;2.17;1.05;;;13.50;80.70;;;;;;5029338;28;20030;-46
2022/09/28 12:07:22;;;;;;;3.97;1.40;;;13.80;79.80;;;;;;4997133;28;20042;-46
2022/09/28 12:10:18;;;;;;;4.43;1.35;;;14.20;78.90;;;;;;5005888;28;20021;-49
2022/09/28 12:12:52;;;;;;;3.30;1.20;;;14.40;76.70;;;;;;5028631;28;20060;-47
2022/09/28 12:15:37;;;;;;;3.17;0.90;;;14.50;74.80;;;;;;5013245;28;20030;-47
2022/09/28 12:18:19;;;;;;;1.83;0.52;;;14.50;74.50;;;;;;5011944;28;20405;-46
2022/09/28 12:20:50;;;;;;;2.25;0.70;;;14.30;72.40;;;;;;5029060;28;20537;-47
2022/09/28 12:23:37;;;;;;;1.25;0.40;;;14.20;72.10;;;;;;5008673;28;20454;-46
2022/09/28 12:26:50;;;;;;;2.58;0.60;;;13.90;72.90;;;;;;5030097;28;20047;-48
2022/09/28 12:29:33;;;;;;;3.67;0.80;;;13.70;73.90;;;;;;4989377;28;20041;-49
2022/09/28 12:32:36;;;;;;;2.40;1.00;;;13.60;74.90;;;;;;5028787;28;20523;-48
2022/09/28 12:35:23;;;;;;;3.00;1.00;;;13.50;74.50;;;;;;5022717;28;20038;-46
2022/09/28 12:38:29;;;;;;;1.67;0.73;;;13.50;75.80;;;;;;5017483;28;20041;-47
2022/09/28 12:41:19;;;;;;;4.22;1.35;;;13.50;75.70;;;;;;5019657;28;20168;-46
2022/09/28 12:44:30;;;;;;;3.78;0.95;;;13.50;76.10;;;;;;5020565;28;20064;-50
2022/09/28 12:47:22;;;;;;;3.88;1.10;;;13.30;75.90;;;;;;5021137;28;20030;-46
2022/09/28 12:50:03;;;;;;;2.60;0.75;;;13.40;76.50;;;;;;5001941;28;20115;-48
2022/09/28 12:52:54;;;;;;;1.70;0.60;;;13.60;76.70;;;;;;5015947;28;20018;-48
2022/09/28 12:55:45;;;;;;;2.20;0.50;;;13.70;74.10;;;;;;5012914;28;20052;-46
2022/09/28 12:58:31;;;;;;;2.30;0.50;;;13.90;72.70;;;;;;5022123;28;20056;-47
2022/09/28 13:01:25;;;;;;;2.90;0.70;;;14.00;73.70;;;;;;5024338;28;20064;-48
2022/09/28 13:04:43;;;;;;;2.35;1.02;;;14.00;73.80;;;;;;5006415;28;20065;-46
2022/09/28 13:07:52;;;;;;;2.38;0.90;;;13.80;73.90;;;;;;4957710;28;20072;-48
2022/09/28 13:10:44;;;;;;;2.30;1.20;;;13.80;76.50;;;;;;5008371;28;20035;-46
2022/09/28 13:13:16;;;;;;;2.70;1.45;;;13.60;75.70;;;;;;5005079;28;20037;-47
2022/09/28 13:16:22;;;;;;;3.50;1.73;;;13.40;77.70;;;;;;5007356;28;20032;-47
2022/09/28 13:19:28;;;;;;;4.05;1.98;;;13.30;80.00;;;;;;5015279;28;20060;-49
2022/09/28 13:22:17;;;;;;;2.70;1.00;;;13.00;82.80;;;;;;5023365;28;20029;-47
2022/09/28 13:24:45;;;;;;;4.97;1.23;;;12.80;83.70;;;;;;5026445;28;20030;-51
2022/09/28 13:27:53;;;;;;;2.47;1.00;;;12.50;84.60;;;;;;4983988;28;20030;-50
2022/09/28 13:30:21;;;;;;;5.13;1.80;;;12.40;85.30;;;;;;4952320;28;20088;-52
2022/09/28 13:32:49;;;;;;;4.88;1.80;;;12.40;86.00;;;;;;4953497;28;20126;-56
2022/09/28 13:35:19;;;;;;;3.15;1.60;;;12.40;86.50;;;;;;4959638;28;20144;-53
2022/09/28 13:37:46;;;;;;;3.42;1.83;;;12.30;86.40;;;;;;4956419;28;20116;-57
2022/09/28 13:40:13;;;;;;;2.78;1.33;;;12.40;86.80;;;;;;4951921;28;20075;-55
2022/09/28 13:43:02;;;;;;;4.10;1.40;;;12.50;86.60;;;;;;4969425;28;20437;-54
2022/09/28 13:46:00;;;;;;;2.70;1.20;;;12.50;86.10;;;;;;4984681;28;20492;-52
2022/09/28 13:48:47;;;;;;;3.20;1.10;;;12.50;85.40;;;;;;4987220;28;20058;-56
2022/09/28 13:51:41;;;;;;;3.38;1.20;;;12.50;84.70;;;;;;4968791;28;20085;-51
2022/09/28 13:54:25;;;;;;;2.38;1.40;;;12.40;84.20;;;;;;4968923;28;20052;-53